createdAt,value
2024-02-02T00:04:58.887Z,7.33
2024-02-02T00:10:00.500Z,7.28
2024-02-02T00:15:05.675Z,7.23
2024-02-02T00:20:09.980Z,7.13
2024-02-02T00:25:11.639Z,7.11
2024-02-02T00:30:13.602Z,7.07
2024-02-02T00:35:15.335Z,7.06
2024-02-02T00:40:19.902Z,7.07
2024-02-02T00:45:22.818Z,7.07
2024-02-02T00:50:24.200Z,7.04
2024-02-02T00:55:25.744Z,6.97
2024-02-02T01:00:27.264Z,6.97
2024-02-02T01:05:32.334Z,6.90
2024-02-02T01:10:33.812Z,6.66
2024-02-02T01:15:38.265Z,6.94
2024-02-02T01:20:40.575Z,6.90
2024-02-02T01:25:42.191Z,6.93
2024-02-02T01:30:43.640Z,6.89
2024-02-02T01:35:45.369Z,6.82
2024-02-02T01:40:46.691Z,6.81
2024-02-02T01:45:47.998Z,6.71
2024-02-02T01:50:50.429Z,6.39
2024-02-02T01:55:52.090Z,6.67
2024-02-02T02:00:54.441Z,6.73
2024-02-02T02:05:56.303Z,6.63
2024-02-02T02:10:58.367Z,6.57
2024-02-02T02:16:00.080Z,6.53
2024-02-02T02:21:27.081Z,6.48
2024-02-02T02:26:29.506Z,6.37
2024-02-02T02:31:30.895Z,6.40
2024-02-02T02:36:34.834Z,6.33
2024-02-02T02:41:36.538Z,6.30
2024-02-02T02:46:38.229Z,6.33
2024-02-02T02:51:39.633Z,6.42
2024-02-02T02:56:43.907Z,6.32
2024-02-02T03:01:46.117Z,6.26
2024-02-02T03:06:47.922Z,6.28
2024-02-02T03:11:49.387Z,6.08
2024-02-02T03:16:50.707Z,6.10
2024-02-02T03:21:52.230Z,6.04
2024-02-02T03:26:53.593Z,5.83
2024-02-02T03:31:54.928Z,6.05
2024-02-02T03:36:56.421Z,6.05
2024-02-02T03:41:57.778Z,5.95
2024-02-02T03:46:59.398Z,6.09
2024-02-02T03:52:08.356Z,6.04
2024-02-02T03:57:10.511Z,6.07
2024-02-02T04:02:12.351Z,6.05
2024-02-02T04:07:13.689Z,5.85
2024-02-02T04:12:17.252Z,5.97
2024-02-02T04:17:18.837Z,5.72
2024-02-02T04:22:20.321Z,5.77
2024-02-02T04:27:22.461Z,5.85
2024-02-02T04:32:23.916Z,6.00
2024-02-02T04:37:25.250Z,6.06
2024-02-02T04:42:27.336Z,5.99
2024-02-02T04:47:28.996Z,5.97
2024-02-02T04:52:31.783Z,6.05
2024-02-02T04:57:33.235Z,5.96
2024-02-02T05:02:34.777Z,5.95
2024-02-02T05:07:36.982Z,5.93
2024-02-02T05:12:41.393Z,5.87
2024-02-02T05:17:45.434Z,5.86
2024-02-02T05:22:47.013Z,5.79
2024-02-02T05:27:48.583Z,5.86
2024-02-02T05:32:49.964Z,5.93
2024-02-02T05:37:53.302Z,5.89
2024-02-02T05:42:54.976Z,5.85
2024-02-02T05:47:56.515Z,6.01
2024-02-02T05:52:57.922Z,6.00
2024-02-02T05:57:59.971Z,6.03
2024-02-02T06:03:01.784Z,6.06
2024-02-02T06:08:03.939Z,6.07
2024-02-02T06:13:07.890Z,6.03
2024-02-02T06:18:09.716Z,6.07
2024-02-02T06:23:13.216Z,6.00
2024-02-02T06:28:15.793Z,6.09
2024-02-02T06:33:18.670Z,6.14
2024-02-02T06:38:21.993Z,6.09
2024-02-02T06:43:23.585Z,5.98
2024-02-02T06:48:25.831Z,6.09
2024-02-02T06:53:30.320Z,5.95
2024-02-02T06:58:46.529Z,5.99
2024-02-02T07:03:48.645Z,5.91
2024-02-02T07:08:53.235Z,5.92
2024-02-02T07:13:54.691Z,5.81
2024-02-02T07:18:56.767Z,5.95
2024-02-02T07:23:59.712Z,5.96
2024-02-02T07:29:06.913Z,5.78
2024-02-02T07:34:30.581Z,5.83
2024-02-02T07:39:32.544Z,5.95
2024-02-02T07:44:35.503Z,5.88
2024-02-02T07:49:37.289Z,5.81
2024-02-02T07:54:38.714Z,5.84
2024-02-02T07:59:40.126Z,5.78
2024-02-02T08:04:41.574Z,5.94
2024-02-02T08:09:43.220Z,5.98
2024-02-02T08:14:44.664Z,6.05
2024-02-02T08:19:46.474Z,6.17
2024-02-02T08:24:47.946Z,6.23
2024-02-02T08:29:49.787Z,6.11
2024-02-02T08:34:51.431Z,6.16
2024-02-02T08:39:54.013Z,6.19
2024-02-02T08:44:56.809Z,6.08
2024-02-02T08:50:02.195Z,6.07
2024-02-02T08:55:20.397Z,6.15
2024-02-02T09:00:41.335Z,6.16
2024-02-02T09:06:00.352Z,6.17
2024-02-02T09:11:03.753Z,6.19
2024-02-02T09:16:05.948Z,6.32
2024-02-02T09:21:08.978Z,6.26
2024-02-02T09:26:16.423Z,6.19
2024-02-02T09:31:23.691Z,6.28
2024-02-02T09:36:30.132Z,6.58
2024-02-02T09:41:52.644Z,7.02
2024-02-02T09:47:03.767Z,7.20
2024-02-02T09:52:20.186Z,7.37
2024-02-02T09:57:52.125Z,7.85
2024-02-02T10:03:19.033Z,7.76
2024-02-02T10:08:44.782Z,8.90
2024-02-02T10:14:05.118Z,8.45
2024-02-02T10:19:43.658Z,8.29
2024-02-02T10:24:51.893Z,8.29
2024-02-02T10:30:20.027Z,8.70
2024-02-02T10:35:48.415Z,9.25
2024-02-02T10:41:03.856Z,9.60
2024-02-02T10:46:30.440Z,9.79
2024-02-02T10:52:00.326Z,9.69
2024-02-02T10:57:27.943Z,9.81
2024-02-02T11:02:46.915Z,10.02
2024-02-02T11:08:03.510Z,10.29
2024-02-02T11:13:22.429Z,10.42
2024-02-02T11:18:54.327Z,10.64
2024-02-02T11:24:06.589Z,10.66
2024-02-02T11:29:19.696Z,10.59
2024-02-02T11:34:39.771Z,10.58
2024-02-02T11:39:57.812Z,10.70
2024-02-02T11:45:01.054Z,10.90
2024-02-02T11:50:07.846Z,11.18
2024-02-02T11:55:33.292Z,11.38
2024-02-02T12:00:56.527Z,11.56
2024-02-02T12:06:04.961Z,11.93
2024-02-02T12:11:11.724Z,12.25
2024-02-02T12:16:13.536Z,12.05
2024-02-02T12:21:16.780Z,12.25
2024-02-02T12:26:18.624Z,12.51
2024-02-02T12:31:20.093Z,12.71
2024-02-02T12:36:22.765Z,13.73
2024-02-02T12:41:24.939Z,14.66
2024-02-02T12:46:28.403Z,14.38
2024-02-02T12:51:30.646Z,13.97
2024-02-02T12:56:32.123Z,13.84
2024-02-02T13:01:34.245Z,13.58
2024-02-02T13:06:36.353Z,13.36
2024-02-02T13:11:43.612Z,13.30
2024-02-02T13:16:45.031Z,13.80
2024-02-02T13:21:46.985Z,13.53
2024-02-02T13:26:52.641Z,13.41
2024-02-02T13:31:54.199Z,13.66
2024-02-02T13:37:02.230Z,13.49
2024-02-02T13:42:06.303Z,14.75
2024-02-02T13:47:13.663Z,15.54
2024-02-02T13:52:15.270Z,14.33
2024-02-02T13:57:17.808Z,13.78
2024-02-02T14:02:20.979Z,13.81
2024-02-02T14:07:23.651Z,15.24
2024-02-02T14:12:25.313Z,16.43
2024-02-02T14:17:26.889Z,17.21
2024-02-02T14:22:28.687Z,18.24
2024-02-02T14:27:41.220Z,17.13
2024-02-02T14:32:42.852Z,15.81
2024-02-02T14:37:44.556Z,15.92
2024-02-02T14:42:46.203Z,16.21
2024-02-02T14:47:48.974Z,16.48
2024-02-02T14:52:50.606Z,17.43
2024-02-02T14:57:53.293Z,19.11
2024-02-02T15:02:55.256Z,20.13
2024-02-02T15:07:57.200Z,19.16
2024-02-02T15:12:58.724Z,18.67
2024-02-02T15:18:00.910Z,18.71
2024-02-02T15:23:02.625Z,17.43
2024-02-02T15:28:04.537Z,15.06
2024-02-02T15:33:05.995Z,14.09
2024-02-02T15:38:10.251Z,13.24
2024-02-02T15:43:14.190Z,12.86
2024-02-02T15:48:16.228Z,12.47
2024-02-02T15:53:19.270Z,12.19
2024-02-02T15:58:20.798Z,11.78
2024-02-02T16:03:22.539Z,11.51
2024-02-02T16:08:24.107Z,11.48
2024-02-02T16:13:25.491Z,11.31
2024-02-02T16:18:27.222Z,11.24
2024-02-02T16:23:28.766Z,11.10
2024-02-02T16:28:30.627Z,10.92
2024-02-02T16:33:32.062Z,10.81
2024-02-02T16:38:35.985Z,10.82
2024-02-02T16:43:39.967Z,10.79
2024-02-02T16:48:41.696Z,10.82
2024-02-02T16:53:43.233Z,10.63
2024-02-02T16:58:45.376Z,10.51
2024-02-02T17:03:46.887Z,10.47
2024-02-02T17:08:48.475Z,10.32
2024-02-02T17:13:50.109Z,10.34
2024-02-02T17:18:53.375Z,10.29
2024-02-02T17:23:55.159Z,10.25
2024-02-02T17:29:00.517Z,10.10
2024-02-02T17:34:08.989Z,10.20
2024-02-02T17:39:10.654Z,10.19
2024-02-02T17:44:13.407Z,10.20
2024-02-02T17:49:15.387Z,10.19
2024-02-02T17:54:16.834Z,9.92
2024-02-02T17:59:19.385Z,9.99
2024-02-02T18:04:21.056Z,9.93
2024-02-02T18:09:22.727Z,9.81
2024-02-02T18:14:27.687Z,9.68
2024-02-02T18:19:31.866Z,9.58
2024-02-02T18:24:33.953Z,9.65
2024-02-02T18:29:35.511Z,9.61
2024-02-02T18:34:37.767Z,9.51
2024-02-02T18:39:39.429Z,9.49
2024-02-02T18:44:41.139Z,9.57
2024-02-02T18:49:43.381Z,9.54
2024-02-02T18:54:44.950Z,9.59
2024-02-02T18:59:46.604Z,9.50
2024-02-02T19:04:48.150Z,9.45
2024-02-02T19:09:52.587Z,9.43
2024-02-02T19:14:54.418Z,9.42
2024-02-02T19:19:56.362Z,9.41
2024-02-02T19:24:59.898Z,9.39
2024-02-02T19:30:01.909Z,9.42
2024-02-02T19:35:03.686Z,9.33
2024-02-02T19:40:05.761Z,9.37
2024-02-02T19:45:07.275Z,9.26
2024-02-02T19:50:09.026Z,9.37
2024-02-02T19:55:10.374Z,9.29
2024-02-02T20:00:14.855Z,9.31
2024-02-02T20:05:16.777Z,9.23
2024-02-02T20:10:18.109Z,9.21
2024-02-02T20:15:19.598Z,9.05
2024-02-02T20:20:21.656Z,9.05
2024-02-02T20:25:23.088Z,9.12
2024-02-02T20:30:24.826Z,9.17
2024-02-02T20:35:27.096Z,9.24
2024-02-02T20:40:31.594Z,9.31
2024-02-02T20:45:33.086Z,9.40
2024-02-02T20:50:34.530Z,9.52
2024-02-02T20:55:36.013Z,9.45
2024-02-02T21:00:40.042Z,9.51
2024-02-02T21:05:41.723Z,9.54
2024-02-02T21:10:43.266Z,9.48
2024-02-02T21:15:45.319Z,9.45
2024-02-02T21:20:53.108Z,9.41
2024-02-02T21:25:56.886Z,9.32
2024-02-02T21:31:00.068Z,9.37
2024-02-02T21:36:04.230Z,9.39
2024-02-02T21:41:06.054Z,9.38
2024-02-02T21:46:07.622Z,9.34
2024-02-02T21:51:10.657Z,9.34
2024-02-02T21:56:12.139Z,9.26
2024-02-02T22:01:13.857Z,9.28
2024-02-02T22:06:16.097Z,9.23
2024-02-02T22:11:19.098Z,9.30
2024-02-02T22:16:20.753Z,9.34
2024-02-02T22:21:24.954Z,9.31
2024-02-02T22:26:26.385Z,9.37
2024-02-02T22:31:27.971Z,9.33
2024-02-02T22:36:29.368Z,9.30
2024-02-02T22:41:34.999Z,9.32
2024-02-02T22:46:36.874Z,9.31
2024-02-02T22:51:48.101Z,9.25
2024-02-02T22:56:49.499Z,9.30
2024-02-02T23:01:50.916Z,9.28
2024-02-02T23:06:52.382Z,9.31
2024-02-02T23:11:53.853Z,9.20
2024-02-02T23:16:55.490Z,9.26
2024-02-02T23:21:56.984Z,9.26
2024-02-02T23:26:59.606Z,9.20
2024-02-02T23:32:02.007Z,9.24
2024-02-02T23:37:03.770Z,9.22
2024-02-02T23:42:06.829Z,9.25
2024-02-02T23:47:08.493Z,9.24
2024-02-02T23:52:11.757Z,9.20
2024-02-02T23:57:14.592Z,9.30
